Details for Virgin Atlantic at EGKK




Go Back


Latest METAR
Local Time

EGKK 241350Z 06015KT CAVOK 05/M04 Q1020

24/02/2018, 13:54:55

Description
Results
Virgin Atlantic Logo
Number of Pilots based at EGKK
7 Pilots Based here
Number of Virgin Atlantic Flights Departed from EGKK
4 Flights Departed
Number of Virgin Atlantic Flights Arrived at EGKK
3 Flights Arrived
Number of Virgin Atlantic Schedules Departing from EGKK
21 Schedules
Number of Virgin Atlantic Schedules Arriving at EGKK
25 Schedules
Number of Virgin Atlantic Schedules Departing from EGKK availible today
7 Schedules Today
Number of Virgin Atlantic Schedules Arriving at EGKK availible today
6 Schedules Today
Average Landing Rate at EGKK
-231 fpm
Virgin Atlantic Average Landing Rate at EGKK
-155 fpm
Total Fuel Purchased at EGKK by Virgin Atlantic
513,054.58 kgs / 1,131,080.13 lbs

Pilots Based at EGKK


Pilot ID
Pilot Name
Pilot Rank
No. of Flights
No. of Flying Hours
Dan Symons
107
380.28
George Jones
35
95.53
Maurice Lyon
41
233.42
Matthew Smith
93
700.29
Pete Desjardins
1
1.59
William Shaw
180
430.37
Clive Kent
0
0
Content